LECOLESO

Guest
Details From LECO - A Coruna
To LESO - San_Sebastian
Flight Number -
Tags generated
Created
Modified
Stats Distance 289 nm / 535 km
Max Altitude 35,000 ft / 10,668 m
Waypoints 6
Social Downloads 2
Likes 0
Share VATSIM

Download

Looking for another format? Having issues loading an existing format? Contact us
Advertisement - Login to hide

Notes

Basic altitude profile: - Ascent Rate: 2500ft/min - Ascent Speed: 250kts - Cruise Altitude: 35000ft - Cruise Speed: 420kts - Descent Rate: 1500ft/min - Descent Speed: 250kts Options: - Use NATs: no - Use PACOTS: no - Use low airways: yes - Use high airways: no

Route

LECO VES R42 SNR LESO

ID Type Via Altitude Latitude Longitude Leg Dist Tot Dist Heading (true) Name
O LECO APT - 0 ft / 0 m 43.30226˚ -8.37709˚ - 0 nm - A Coruna
VES VOR - 35,000 ft / 10,668 m 43.56459˚ -6.03067˚ 103 nm 103 nm 80° / 82° ASTURIAS VOR-DME
MUSIL FIX R42 (AWY-LO) 23,500 ft / 7,163 m 43.54284˚ -5.56393˚ 20 nm 123 nm 94° / 94° -
BEATI FIX R42 (AWY-LO) 23,800 ft / 7,254 m 43.47626˚ -4.33333˚ 53 nm 177 nm 94° / 95° -
SNR VOR R42 (AWY-LO) 19,700 ft / 6,005 m 43.44978˚ -3.90241˚ 18 nm 196 nm 95° / 95° SANTANDER VOR-DME
O LESO APT - 0 ft / 0 m 43.35652˚ -1.79061˚ 92 nm 288 nm 93° / 94° San_Sebastian

Altitude Profile

Advertisement - Login to hide

Weather


0- 5 10 15 20 25 30 35+ Temperature / ° C

Clouds and Precipitation
Forecast for 2017-12-15 12:00 UTC. Updated an hour ago

Ground ~20,000 ft ~40,000 ft Winds

LECO

Details ICAO LECO (LCG)
Name A Coruna
Region Spain
Timezone Europe/Madrid (UTC+1.0)
Stats Elevation 323 ft / 98 m (AMSL)
Location 43.302264° -8.377086°
Runways 1
Magnetic Variation 2.391° W

METAR

LECO 150800Z 35003KT 290V080 9999 FEW020 SCT032 09/06 Q1015 NOSIG

Decode

TAF

TAF LECO 150200Z 1503/1603 28007KT 8000 SCT010 BKN030 TX13/1514Z TN07/1506Z BECMG 1503/1505 34010KT PROB30 TEMPO 1503/1508 4000 RA BKN010

Decode

Departure Runways

ID Width Length Bearing (true) Bearing (mag) Surface Threshold Offset Overrun Length
04 148 ft / 45 m 6,371 ft / 1,942 m 30.94° 33.33° Asphalt 0 ft / 0 m 194 ft / 59 m
22 148 ft / 45 m 6,371 ft / 1,942 m 210.94° 213.33° Asphalt 0 ft / 0 m 203 ft / 62 m

LESO

Details ICAO LESO (EAS)
Name San_Sebastian
Region Spain
Timezone Europe/Madrid (UTC+1.0)
Stats Elevation 14 ft / 4 m (AMSL)
Location 43.356520° -1.790611°
Runways 1
Magnetic Variation 0.297° W

METAR

LESO 150800Z 23010KT 200V280 9999 -RA FEW014 BKN034 BKN050 08/06 Q1011

Decode

TAF

TAF LESO 150500Z 1506/1606 28009KT 9999 SCT018 BKN030 TX13/1514Z TN07/1506Z TEMPO 1506/1606 28015G25KT 3000 RA BKN010 TEMPO 1506/1606 30018G35KT 3000 SHRA SCT030TCU PROB40 TEMPO 1506/1606 1000 +SHRA TSRA SCT025CB

Decode

Destination Runways

ID Width Length Bearing (true) Bearing (mag) Surface Threshold Offset Overrun Length
04 148 ft / 45 m 5,762 ft / 1,756 m 38.68° 38.98° Asphalt 0 ft / 0 m 0 ft / 0 m
22 148 ft / 45 m 5,762 ft / 1,756 m 218.69° 218.99° Asphalt 0 ft / 0 m 0 ft / 0 m

Popular Alternatives